Time;durP1;ratioP1;P1;durP2;ratioP2;P2;SDS_P1;SDS_P2;PMS_P1;PMS_P2;Temp;Humidity;BMP_temperature;BMP_pressure;BME280_temperature;BME280_humidity;BME280_pressure;Samples;Min_cycle;Max_cycle;Signal;HPM_P1;HPM_P2
2022/01/25 00:25:07;;;;;;;22.70;16.70;;;;;;;2.32;88.35;96858.03;4392057;32;20337;-58
2022/01/25 00:30:41;;;;;;;20.90;15.93;;;;;;;2.13;90.10;96864.09;4356137;32;20375;-59
2022/01/25 00:33:07;;;;;;;21.57;15.97;;;;;;;2.55;88.52;96852.38;4391187;32;20298;-59
2022/01/25 00:35:32;;;;;;;28.13;17.07;;;;;;;2.51;87.60;96851.16;4386681;32;20292;-59
2022/01/25 00:37:57;;;;;;;21.83;15.47;;;;;;;2.31;88.82;96856.41;4388513;32;20172;-58
2022/01/25 00:40:22;;;;;;;21.57;15.67;;;;;;;2.29;89.09;96864.47;4408487;32;20199;-59
2022/01/25 00:42:48;;;;;;;23.23;16.13;;;;;;;2.55;88.24;96853.16;4373950;32;20240;-58
2022/01/25 00:45:15;;;;;;;20.97;15.97;;;;;;;2.55;87.70;96853.16;4399847;32;20211;-59
2022/01/25 00:47:41;;;;;;;22.87;16.00;;;;;;;2.53;87.69;96862.22;4380430;32;20177;-58
2022/01/25 00:50:14;;;;;;;21.83;16.90;;;;;;;2.27;89.00;96850.00;4408767;32;20282;-59
2022/01/25 00:55:12;;;;;;;20.07;15.77;;;;;;;2.42;88.12;96842.72;4371022;32;20292;-59
2022/01/25 00:57:37;;;;;;;20.20;14.83;;;;;;;2.46;87.76;96843.13;4372784;32;20277;-59
2022/01/25 01:00:06;;;;;;;19.17;14.97;;;;;;;2.45;88.35;96850.19;4399701;32;20295;-58
2022/01/25 01:02:31;;;;;;;21.73;16.17;;;;;;;2.52;87.74;96837.84;4376155;32;20189;-58
2022/01/25 01:04:57;;;;;;;20.90;15.03;;;;;;;2.78;86.83;96838.81;4369065;32;20269;-58
2022/01/25 01:07:23;;;;;;;22.03;16.17;;;;;;;2.47;87.73;96844.75;4369443;32;20183;-59
2022/01/25 01:09:51;;;;;;;23.67;15.37;;;;;;;2.51;87.55;96846.72;4401378;32;20236;-59
2022/01/25 01:15:06;;;;;;;19.97;15.13;;;;;;;2.68;86.78;96845.31;4391258;32;20359;-59
2022/01/25 01:44:40;;;;;;;26.10;15.97;;;;;;;2.39;88.32;96848.38;4406179;32;20294;-59
2022/01/25 01:47:10;;;;;;;24.93;16.33;;;;;;;2.32;88.71;96848.38;4387875;32;20350;-58
2022/01/25 01:49:41;;;;;;;21.03;14.80;;;;;;;2.14;89.28;96860.47;4375651;32;20268;-58
2022/01/25 01:52:07;;;;;;;22.83;15.43;;;;;;;2.19;89.67;96858.84;4394347;32;20275;-60
2022/01/25 01:54:32;;;;;;;20.60;14.87;;;;;;;2.28;89.65;96856.84;4375568;32;20273;-59
2022/01/25 01:56:58;;;;;;;21.27;15.53;;;;;;;2.11;89.75;96859.06;4387788;32;20185;-58
2022/01/25 01:59:23;;;;;;;21.70;16.00;;;;;;;2.03;90.15;96854.84;4383444;32;20234;-58
2022/01/25 02:01:49;;;;;;;23.70;16.33;;;;;;;2.26;89.75;96857.06;4390077;32;20224;-58
2022/01/25 02:04:17;;;;;;;23.17;14.93;;;;;;;2.17;90.03;96854.81;4392948;32;20252;-58
2022/01/25 02:06:42;;;;;;;20.50;15.20;;;;;;;2.02;90.58;96853.22;4388685;32;20268;-59
2022/01/25 02:09:09;;;;;;;22.00;15.77;;;;;;;2.41;89.63;96854.22;4381933;32;20298;-58
2022/01/25 02:11:35;;;;;;;29.23;16.80;;;;;;;2.38;89.11;96854.59;4397066;32;20202;-58
2022/01/25 02:14:05;;;;;;;24.70;16.07;;;;;;;2.44;88.31;96845.16;4382485;32;20326;-59
2022/01/25 02:24:42;;;;;;;25.20;16.70;;;;;;;1.94;91.42;96836.91;4396385;32;20341;-58
2022/01/25 02:27:08;;;;;;;24.50;17.27;;;;;;;1.98;91.35;96841.56;4383461;32;20272;-59
2022/01/25 02:29:34;;;;;;;23.13;15.87;;;;;;;1.89;91.87;96837.50;4390264;32;20287;-59
2022/01/25 02:32:00;;;;;;;21.90;15.37;;;;;;;2.35;90.48;96831.44;4382674;32;20273;-59
2022/01/25 02:34:26;;;;;;;21.13;15.07;;;;;;;2.44;89.01;96837.28;4379194;32;20268;-59
2022/01/25 02:37:04;;;;;;;22.93;15.60;;;;;;;2.13;89.67;96843.16;4397406;32;20188;-59
2022/01/25 02:39:30;;;;;;;21.20;14.80;;;;;;;2.36;89.56;96835.69;4393338;32;20276;-58
2022/01/25 02:41:56;;;;;;;21.43;15.83;;;;;;;2.30;89.22;96834.66;4391170;32;20294;-59
2022/01/25 02:44:27;;;;;;;20.33;14.97;;;;;;;2.43;89.15;96828.63;4402790;32;20194;-58
2022/01/25 02:48:29;;;;;;;21.80;14.63;;;;;;;2.27;89.33;96832.50;4400322;32;20181;-58
2022/01/25 02:49:42;;;;;;;25.87;16.77;;;;;;;2.08;89.52;96827.28;4392795;32;20303;-59
2022/01/25 02:52:08;;;;;;;27.40;15.30;;;;;;;1.72;91.43;96820.59;4375078;32;20268;-58
2022/01/25 02:54:35;;;;;;;23.50;15.93;;;;;;;1.77;91.58;96823.44;4391163;32;20196;-59
2022/01/25 02:57:01;;;;;;;23.20;15.20;;;;;;;1.81;91.57;96821.22;4388104;32;20222;-58
2022/01/25 02:59:26;;;;;;;27.57;16.33;;;;;;;1.64;92.70;96828.66;4391286;32;20359;-58
2022/01/25 03:01:52;;;;;;;23.60;15.87;;;;;;;1.75;92.74;96829.87;4393302;32;20237;-58
2022/01/25 03:04:20;;;;;;;22.33;15.57;;;;;;;1.83;92.20;96833.09;4386689;32;20188;-58
2022/01/25 03:06:45;;;;;;;24.83;15.10;;;;;;;1.76;92.04;96832.28;4401678;32;20193;-59
2022/01/25 03:09:11;;;;;;;21.50;14.73;;;;;;;1.75;92.04;96833.28;4385637;32;20279;-59
2022/01/25 03:11:37;;;;;;;20.83;14.53;;;;;;;2.14;90.77;96829.06;4384574;32;20237;-59
2022/01/25 03:14:07;;;;;;;21.90;14.47;;;;;;;2.16;89.98;96835.69;4385211;32;20347;-59
2022/01/25 03:17:07;;;;;;;23.10;14.83;;;;;;;2.11;90.27;96826.84;4404427;32;20184;-58
2022/01/25 03:22:05;;;;;;;23.17;15.20;;;;;;;2.26;89.93;96824.84;4383995;32;20310;-58
2022/01/25 03:24:31;;;;;;;26.03;15.60;;;;;;;2.08;90.33;96828.03;4377008;32;20325;-59
2022/01/25 03:26:56;;;;;;;22.17;14.27;;;;;;;1.84;90.71;96828.69;4379300;32;20355;-59
2022/01/25 03:29:21;;;;;;;22.67;14.40;;;;;;;1.94;91.18;96824.63;4390037;32;20302;-58
2022/01/25 03:31:47;;;;;;;21.93;14.57;;;;;;;1.94;91.37;96824.63;4371846;32;20219;-59
2022/01/25 03:34:12;;;;;;;24.77;15.00;;;;;;;1.80;91.55;96828.25;4390465;32;20245;-58
2022/01/25 03:36:38;;;;;;;22.97;13.47;;;;;;;1.86;91.67;96831.91;4391460;32;20200;-58
2022/01/25 03:39:06;;;;;;;26.00;16.20;;;;;;;1.72;92.13;96828.44;4389438;32;20188;-58
2022/01/25 03:41:33;;;;;;;22.17;15.10;;;;;;;1.87;91.84;96830.91;4396261;32;20231;-58
2022/01/25 03:43:58;;;;;;;22.37;14.93;;;;;;;1.87;91.29;96821.19;4396856;32;20272;-59
2022/01/25 03:51:43;;;;;;;21.40;13.47;;;;;;;2.13;90.08;96823.00;4379534;32;20371;-58
2022/01/25 03:54:08;;;;;;;20.57;13.80;;;;;;;2.27;88.98;96826.44;4383059;32;20284;-58
2022/01/25 03:56:34;;;;;;;20.73;13.03;;;;;;;2.49;88.19;96817.34;4403068;32;20201;-58
2022/01/25 03:59:00;;;;;;;19.70;12.83;;;;;;;2.11;89.05;96822.41;4390588;32;20196;-59
2022/01/25 04:01:27;;;;;;;20.03;13.47;;;;;;;2.51;88.16;96819.72;4383911;32;20250;-58
2022/01/25 04:04:28;;;;;;;21.07;13.57;;;;;;;2.21;88.83;96814.16;4376468;32;20283;-59
2022/01/25 04:06:49;;;;;;;19.07;12.27;;;;;;;1.89;89.15;96821.81;4361891;32;20350;-58
2022/01/25 04:09:15;;;;;;;19.97;13.07;;;;;;;2.00;89.24;96823.84;4370084;32;20377;-58
2022/01/25 04:11:40;;;;;;;18.13;12.30;;;;;;;1.89;89.37;96811.34;4372863;32;20284;-59
2022/01/25 04:14:07;;;;;;;19.50;12.23;;;;;;;1.76;90.58;96813.16;4376263;32;20192;-59
2022/01/25 04:16:41;;;;;;;17.53;12.27;;;;;;;1.91;89.94;96814.56;4373780;32;20183;-59
2022/01/25 04:19:11;;;;;;;19.10;12.50;;;;;;;2.04;89.52;96808.53;4373568;32;20303;-60
2022/01/25 04:26:52;;;;;;;15.37;10.97;;;;;;;1.68;90.48;96808.94;4380778;32;20270;-58
2022/01/25 04:29:18;;;;;;;15.83;11.77;;;;;;;2.00;89.34;96818.59;4362473;32;20277;-59
2022/01/25 04:31:44;;;;;;;17.93;12.23;;;;;;;1.97;88.81;96808.53;4405925;32;20280;-58
2022/01/25 04:34:37;;;;;;;17.77;12.10;;;;;;;1.80;89.26;96804.72;4375203;32;20354;-58
2022/01/25 04:55:59;;;;;;;18.40;12.07;;;;;;;2.05;89.80;96794.44;4366735;32;20290;-59
2022/01/25 04:59:19;;;;;;;17.27;12.73;;;;;;;2.15;88.98;96794.03;4397160;32;20276;-58
2022/01/25 05:01:11;;;;;;;20.30;11.83;;;;;;;2.15;88.55;96786.19;4356089;32;20292;-59
2022/01/25 05:04:03;;;;;;;18.60;12.23;;;;;;;1.91;88.90;96779.75;4363037;32;20301;-59
2022/01/25 05:06:30;;;;;;;17.37;11.50;;;;;;;1.93;89.06;96781.16;4364731;32;20277;-59
2022/01/25 05:09:05;;;;;;;18.30;11.83;;;;;;;1.71;89.53;96782.38;4341205;32;20288;-59
2022/01/25 05:11:40;;;;;;;19.03;11.50;;;;;;;1.52;90.45;96783.97;4401085;32;20351;-59
2022/01/25 05:16:47;;;;;;;14.80;11.10;;;;;;;1.86;89.49;96782.19;4369893;32;20293;-58
2022/01/25 05:24:53;;;;;;;15.43;10.60;;;;;;;1.99;88.34;96790.84;4372115;32;20367;-58
2022/01/25 05:27:30;;;;;;;17.33;10.40;;;;;;;1.95;88.29;96779.16;4386060;32;20284;-59
2022/01/25 05:29:56;;;;;;;16.77;10.80;;;;;;;1.99;87.42;96790.03;4362441;32;20288;-59
2022/01/25 05:32:22;;;;;;;15.13;10.07;;;;;;;2.02;87.25;96790.44;4382411;32;20275;-59
2022/01/25 05:34:49;;;;;;;14.43;10.43;;;;;;;2.01;87.15;96788.00;4373021;32;20320;-61
2022/01/25 05:37:15;;;;;;;17.80;10.80;;;;;;;1.98;87.58;96783.97;4352001;32;20281;-59
2022/01/25 05:39:40;;;;;;;17.37;10.80;;;;;;;1.94;87.80;96785.37;4354294;32;20376;-59
2022/01/25 05:42:30;;;;;;;15.13;10.43;;;;;;;1.62;88.46;96794.06;4375943;32;20184;-59
2022/01/25 05:45:00;;;;;;;15.90;10.17;;;;;;;1.77;88.93;96786.81;4342556;32;20197;-58
2022/01/25 05:47:31;;;;;;;16.27;10.13;;;;;;;1.72;89.14;96789.22;4363434;32;20401;-59
2022/01/25 05:50:13;;;;;;;15.07;9.40;;;;;;;1.50;90.15;96798.25;4351884;32;20284;-59
2022/01/25 05:52:41;;;;;;;14.43;9.40;;;;;;;1.81;88.49;96798.50;4392963;32;20352;-59
2022/01/25 05:55:10;;;;;;;13.10;9.20;;;;;;;1.97;87.91;96790.22;4406232;32;20294;-62
2022/01/25 05:57:36;;;;;;;12.50;9.53;;;;;;;2.07;87.10;96789.81;4389346;32;20284;-58
2022/01/25 06:00:06;;;;;;;14.53;9.63;;;;;;;2.01;86.98;96793.25;4307276;32;20278;-57
2022/01/25 06:02:32;;;;;;;14.10;9.23;;;;;;;2.03;86.86;96796.47;4369096;32;20279;-57
2022/01/25 06:04:59;;;;;;;12.80;8.83;;;;;;;1.74;87.60;96800.28;4366198;32;20359;-57
2022/01/25 06:07:26;;;;;;;13.50;9.20;;;;;;;1.75;87.91;96799.28;4361871;32;20285;-57
2022/01/25 06:09:52;;;;;;;15.45;9.98;;;;;;;1.70;88.17;96796.47;4404263;32;20279;-57
2022/01/25 06:12:18;;;;;;;14.13;8.97;;;;;;;1.66;88.65;96801.28;4392330;32;20228;-59
2022/01/25 06:14:44;;;;;;;14.87;10.17;;;;;;;1.84;87.84;96798.09;4386760;32;20346;-58
2022/01/25 06:17:10;;;;;;;13.83;8.70;;;;;;;2.01;87.05;96782.78;4378152;32;20203;-57
2022/01/25 06:19:39;;;;;;;13.03;9.03;;;;;;;2.10;86.81;96775.50;4371747;32;20233;-57
2022/01/25 06:22:05;;;;;;;12.30;8.43;;;;;;;1.92;86.40;96778.75;4370065;32;20321;-57
2022/01/25 06:24:35;;;;;;;12.00;8.73;;;;;;;1.69;87.94;96779.97;4376425;32;20307;-58
2022/01/25 06:27:01;;;;;;;11.03;8.60;;;;;;;1.82;87.68;96775.75;4351361;32;20335;-58
2022/01/25 06:29:26;;;;;;;11.40;8.40;;;;;;;1.91;87.39;96772.72;4336782;32;20372;-58
2022/01/25 06:31:52;;;;;;;12.47;9.00;;;;;;;1.85;86.68;96768.31;4360962;32;20193;-59
2022/01/25 06:34:17;;;;;;;12.10;8.53;;;;;;;1.52;87.86;96783.16;4373517;32;20195;-58
2022/01/25 06:36:43;;;;;;;12.90;9.20;;;;;;;1.30;88.80;96778.13;4348890;32;20257;-59
2022/01/25 06:39:11;;;;;;;13.40;9.52;;;;;;;1.48;88.28;96781.97;4380288;32;20216;-58
2022/01/25 06:41:38;;;;;;;13.10;8.68;;;;;;;1.30;89.06;96772.88;4380457;32;20176;-59
2022/01/25 06:44:06;;;;;;;12.95;9.15;;;;;;;1.16;90.02;96786.13;4389316;32;20215;-58
2022/01/25 06:46:32;;;;;;;12.13;9.25;;;;;;;1.36;89.92;96777.34;4350626;32;20244;-58
2022/01/25 06:48:57;;;;;;;17.47;9.53;;;;;;;1.41;89.16;96783.78;4389324;32;20241;-59
2022/01/25 06:51:24;;;;;;;14.07;9.17;;;;;;;1.22;89.52;96780.12;4384672;32;20185;-59
2022/01/25 06:53:51;;;;;;;13.10;9.77;;;;;;;1.40;89.36;96790.81;4355755;32;20194;-58
2022/01/25 06:56:16;;;;;;;12.60;9.07;;;;;;;1.16;89.70;96786.94;4374242;32;20184;-58
2022/01/25 06:58:42;;;;;;;14.53;10.07;;;;;;;1.15;90.12;96790.56;4362215;32;20241;-58
2022/01/25 07:01:08;;;;;;;13.20;9.67;;;;;;;1.15;89.96;96797.59;4355617;32;20251;-63
2022/01/25 07:03:34;;;;;;;13.02;9.75;;;;;;;0.99;90.75;96806.59;4361752;32;20180;-58
2022/01/25 07:05:59;;;;;;;13.87;9.73;;;;;;;1.20;90.53;96803.84;4368540;32;20192;-59
2022/01/25 07:08:24;;;;;;;15.40;9.83;;;;;;;1.26;89.96;96808.25;4388298;32;20212;-58
2022/01/25 07:10:50;;;;;;;14.57;11.37;;;;;;;1.22;90.03;96803.66;4354410;32;20267;-59
2022/01/25 07:13:16;;;;;;;12.90;9.73;;;;;;;1.12;90.98;96814.47;4396764;32;20196;-58
2022/01/25 07:15:42;;;;;;;14.48;9.27;;;;;;;1.07;90.85;96811.62;4383526;32;20195;-58
2022/01/25 07:18:08;;;;;;;15.17;10.87;;;;;;;0.98;91.38;96821.47;4349013;32;20302;-59
2022/01/25 07:20:35;;;;;;;14.48;9.65;;;;;;;0.96;91.47;96820.03;4382208;32;20207;-58
2022/01/25 07:23:02;;;;;;;14.48;10.18;;;;;;;0.82;90.92;96815.78;4387613;32;20188;-59
2022/01/25 07:25:29;;;;;;;13.10;10.13;;;;;;;0.78;91.61;96812.75;4353286;32;20282;-58
2022/01/25 07:27:56;;;;;;;15.70;10.63;;;;;;;0.88;91.00;96822.81;4366493;32;20184;-58
2022/01/25 07:30:22;;;;;;;15.95;11.40;;;;;;;0.78;90.95;96825.00;4389832;32;20192;-58
2022/01/25 07:32:50;;;;;;;16.87;11.18;;;;;;;0.75;91.18;96818.34;4393932;32;20198;-58
2022/01/25 07:35:16;;;;;;;15.98;11.70;;;;;;;0.81;91.79;96811.56;4389659;32;20203;-58
2022/01/25 07:37:42;;;;;;;40.67;10.32;;;;;;;1.01;91.56;96815.03;4398698;32;20184;-45
2022/01/25 07:40:08;;;;;;;22.10;8.97;;;;;;;2.19;97.37;96803.91;4371281;32;20188;-45
2022/01/25 07:42:36;;;;;;;16.53;10.60;;;;;;;6.30;100.00;96792.00;4386468;32;20227;-44
2022/01/25 07:45:10;;;;;;;13.37;9.87;;;;;;;7.74;84.12;96801.44;4363164;32;20196;-45
2022/01/25 07:47:37;;;;;;;12.43;10.60;;;;;;;9.15;69.29;96795.81;4345087;32;20305;-46
2022/01/25 07:50:08;;;;;;;11.77;10.03;;;;;;;9.72;62.59;96790.88;4347295;32;20272;-45
2022/01/25 07:52:35;;;;;;;14.77;12.00;;;;;;;10.04;59.40;96798.81;4381269;32;20280;-43
2022/01/25 07:55:01;;;;;;;14.63;11.37;;;;;;;10.46;57.80;96801.56;4329585;32;20341;-46
2022/01/25 07:57:27;;;;;;;17.63;11.27;;;;;;;10.49;57.45;96808.22;4348026;32;20366;-46
2022/01/25 07:59:52;;;;;;;18.17;11.07;;;;;;;10.57;57.16;96807.75;4357634;32;20193;-44
2022/01/25 08:02:20;;;;;;;15.97;11.37;;;;;;;10.71;55.22;96803.56;4349409;32;20285;-46
2022/01/25 08:04:47;;;;;;;16.23;12.07;;;;;;;10.36;55.04;96806.00;4356248;32;20243;-48
2022/01/25 08:07:36;;;;;;;17.23;12.67;;;;;;;10.65;53.84;96810.69;4333267;32;20222;-44
2022/01/25 08:10:06;;;;;;;14.10;12.37;;;;;;;10.73;53.18;96812.09;4330832;32;20197;-44
2022/01/25 08:12:31;;;;;;;12.47;11.17;;;;;;;10.71;52.78;96813.38;4361057;32;20184;-48
2022/01/25 08:15:00;;;;;;;15.30;12.53;;;;;;;10.65;52.89;96812.56;4382399;32;20267;-44
2022/01/25 08:17:26;;;;;;;14.10;11.50;;;;;;;10.57;52.72;96815.72;4370984;32;20213;-44
2022/01/25 08:19:52;;;;;;;13.57;11.53;;;;;;;10.62;52.22;96819.16;4348778;32;20197;-45
2022/01/25 08:22:18;;;;;;;13.13;11.73;;;;;;;10.50;52.45;96823.06;4350635;32;20236;-46
2022/01/25 08:24:45;;;;;;;12.67;10.80;;;;;;;10.40;52.52;96828.28;4326528;32;20202;-46
2022/01/25 08:27:11;;;;;;;14.40;12.93;;;;;;;10.05;52.98;96821.63;4368784;32;20243;-47
2022/01/25 08:29:37;;;;;;;14.40;12.90;;;;;;;10.09;52.92;96817.44;4367771;32;20188;-44
2022/01/25 08:32:05;;;;;;;14.77;13.27;;;;;;;9.95;53.20;96821.56;4350030;32;20271;-46
2022/01/25 08:34:35;;;;;;;14.87;13.17;;;;;;;10.14;53.10;96819.34;4340209;32;20290;-46
2022/01/25 08:37:00;;;;;;;14.57;12.73;;;;;;;10.25;52.45;96813.06;4361236;32;20279;-43
2022/01/25 08:39:28;;;;;;;15.00;12.60;;;;;;;10.32;52.27;96811.03;4350393;32;20262;-47
2022/01/25 08:41:55;;;;;;;15.53;13.30;;;;;;;10.84;51.36;96805.75;4358426;32;20248;-44
2022/01/25 08:44:25;;;;;;;15.77;13.17;;;;;;;11.10;50.54;96803.22;4343920;32;20236;-45
2022/01/25 08:46:55;;;;;;;14.73;12.90;;;;;;;11.63;49.17;96800.22;4380391;32;20232;-46
2022/01/25 08:49:22;;;;;;;17.30;12.93;;;;;;;11.99;48.54;96797.63;4358821;32;20304;-46
2022/01/25 08:51:49;;;;;;;16.17;12.87;;;;;;;12.03;47.66;96809.34;4365616;32;20187;-43
2022/01/25 08:54:16;;;;;;;15.77;14.13;;;;;;;12.43;47.18;96805.88;4388209;32;20198;-60
2022/01/25 08:56:45;;;;;;;17.23;15.23;;;;;;;10.70;49.47;96811.78;4390561;32;20211;-61
2022/01/25 08:59:12;;;;;;;16.07;14.37;;;;;;;8.62;55.01;96813.16;4375377;32;20283;-62
2022/01/25 09:01:42;;;;;;;15.80;13.87;;;;;;;7.19;59.99;96817.09;4378799;32;20185;-62
2022/01/25 09:04:12;;;;;;;14.63;12.43;;;;;;;6.64;64.02;96816.75;4317790;32;20205;-64
2022/01/25 09:06:43;;;;;;;15.20;13.60;;;;;;;6.44;67.67;96825.00;4359681;32;20262;-62
2022/01/25 09:09:10;;;;;;;15.53;13.90;;;;;;;5.66;67.18;96825.19;4360237;32;20181;-61
2022/01/25 09:12:01;;;;;;;18.73;14.77;;;;;;;4.96;70.03;96823.09;4366253;32;20272;-61
2022/01/25 09:14:30;;;;;;;18.53;15.07;;;;;;;4.62;71.60;96827.06;4365322;32;20291;-61
2022/01/25 09:17:09;;;;;;;18.20;14.17;;;;;;;4.23;73.68;96824.84;4378747;32;20327;-61
2022/01/25 09:19:56;;;;;;;18.40;15.37;;;;;;;4.12;74.38;96835.03;4369571;32;20323;-61
2022/01/25 09:22:24;;;;;;;19.60;15.13;;;;;;;3.33;77.48;96825.06;4366940;32;20284;-61
2022/01/25 09:24:52;;;;;;;17.93;14.20;;;;;;;3.64;77.54;96831.34;4334873;32;20269;-61
2022/01/25 09:30:45;;;;;;;18.83;14.40;;;;;;;3.54;77.30;96825.75;4365567;32;20329;-61
2022/01/25 09:33:24;;;;;;;18.87;14.13;;;;;;;3.32;79.28;96825.28;4375378;32;20308;-61
2022/01/25 09:35:57;;;;;;;17.63;13.47;;;;;;;3.18;79.54;96824.53;4381065;32;20359;-61
2022/01/25 09:38:24;;;;;;;19.70;14.27;;;;;;;2.79;81.55;96827.31;4373944;32;20382;-61
2022/01/25 09:40:53;;;;;;;17.77;14.60;;;;;;;2.92;80.73;96827.25;4343502;32;20330;-62
2022/01/25 09:43:21;;;;;;;19.83;14.90;;;;;;;2.87;82.22;96832.34;4352492;32;20311;-62
2022/01/25 09:45:48;;;;;;;16.43;13.63;;;;;;;2.78;82.31;96833.56;4359952;32;20288;-61
2022/01/25 09:48:16;;;;;;;18.10;14.87;;;;;;;3.03;81.14;96840.53;4356879;32;20307;-61
2022/01/25 10:11:48;;;;;;;15.80;14.20;;;;;;;10.17;51.71;96814.34;4371867;32;20249;-60
2022/01/25 10:14:14;;;;;;;14.23;12.83;;;;;;;8.23;57.23;96813.09;4367324;32;20198;-60
2022/01/25 10:16:52;;;;;;;12.53;11.33;;;;;;;7.10;61.32;96815.84;4372274;32;20180;-60
2022/01/25 10:19:25;;;;;;;11.63;10.50;;;;;;;5.85;65.70;96818.81;4371412;32;20196;-60
2022/01/25 10:21:59;;;;;;;11.63;10.43;;;;;;;5.76;67.02;96820.19;4379351;32;20272;-61
2022/01/25 10:24:32;;;;;;;11.67;10.57;;;;;;;4.91;70.27;96814.25;4363813;32;20288;-61
2022/01/25 10:27:03;;;;;;;12.50;11.23;;;;;;;4.74;71.47;96809.56;4364967;32;20383;-59
2022/01/25 10:29:35;;;;;;;13.17;11.73;;;;;;;4.61;72.80;96796.56;4367541;32;20344;-60
2022/01/25 10:32:15;;;;;;;12.73;10.50;;;;;;;4.47;73.85;96797.72;4384154;32;20280;-59
2022/01/25 10:35:11;;;;;;;11.73;10.53;;;;;;;4.76;72.90;96807.53;4398780;32;20286;-59
2022/01/25 10:37:41;;;;;;;11.17;9.67;;;;;;;4.65;73.26;96795.09;4380704;32;20280;-62
2022/01/25 10:40:11;;;;;;;13.20;10.40;;;;;;;4.44;74.78;96795.53;4373636;32;20368;-60
2022/01/25 10:42:57;;;;;;;10.70;9.50;;;;;;;4.12;75.74;96803.53;4381357;32;20319;-60
2022/01/25 10:45:23;;;;;;;10.47;9.33;;;;;;;4.34;75.71;96798.69;4344571;32;20276;-60
2022/01/25 10:48:01;;;;;;;12.00;8.57;;;;;;;4.39;75.75;96796.19;4347358;32;20342;-59
2022/01/25 10:50:39;;;;;;;10.10;9.00;;;;;;;4.47;75.05;96787.22;4346985;32;20214;-59
2022/01/25 10:53:17;;;;;;;8.83;8.03;;;;;;;4.23;76.20;96782.81;4344171;32;20329;-60
2022/01/25 10:56:36;;;;;;;8.63;7.77;;;;;;;4.47;75.48;96774.88;4362089;32;20355;-60
2022/01/25 10:59:25;;;;;;;10.03;8.80;;;;;;;4.52;75.68;96782.13;4367204;32;20287;-61
2022/01/25 11:01:58;;;;;;;10.00;8.43;;;;;;;4.64;75.03;96767.22;4387430;32;20295;-60
2022/01/25 11:04:35;;;;;;;9.27;7.93;;;;;;;4.50;75.73;96771.03;4369116;32;20299;-60
2022/01/25 11:07:08;;;;;;;9.20;7.97;;;;;;;4.62;75.45;96763.22;4355992;32;20413;-59
2022/01/25 11:09:53;;;;;;;9.23;8.03;;;;;;;4.78;75.45;96773.16;4367087;32;20299;-61
2022/01/25 11:12:39;;;;;;;8.10;7.30;;;;;;;4.89;75.01;96766.31;4371935;32;20352;-59
2022/01/25 11:15:06;;;;;;;8.57;7.77;;;;;;;5.18;73.70;96773.44;4368968;32;20304;-59
2022/01/25 11:17:34;;;;;;;8.73;7.40;;;;;;;4.73;74.90;96763.28;4368831;32;20298;-59
2022/01/25 11:20:04;;;;;;;8.60;7.60;;;;;;;5.12;74.64;96753.28;4371420;32;20368;-59
2022/01/25 11:22:30;;;;;;;8.13;7.33;;;;;;;5.10;74.21;96752.72;4368698;32;20283;-59
2022/01/25 11:25:02;;;;;;;8.57;7.77;;;;;;;5.46;73.47;96752.59;4375887;32;20288;-59
2022/01/25 11:27:30;;;;;;;8.40;7.60;;;;;;;5.18;73.99;96749.78;4370187;32;20298;-59
2022/01/25 11:29:59;;;;;;;7.53;6.83;;;;;;;4.98;74.82;96746.59;4393625;32;20296;-59
2022/01/25 11:32:31;;;;;;;7.97;7.17;;;;;;;5.38;73.44;96739.78;4388702;32;20322;-58
2022/01/25 11:34:58;;;;;;;7.90;7.10;;;;;;;5.56;73.16;96736.25;4376313;32;20363;-59
2022/01/25 11:37:53;;;;;;;7.90;7.20;;;;;;;5.58;71.99;96739.47;4385582;32;20276;-59
2022/01/25 11:40:26;;;;;;;7.33;6.63;;;;;;;5.69;72.22;96738.66;4349867;32;20281;-60
2022/01/25 11:42:55;;;;;;;7.10;6.40;;;;;;;5.64;72.57;96737.75;4377858;32;20316;-59
2022/01/25 11:45:27;;;;;;;10.63;6.40;;;;;;;5.61;72.48;96732.97;4383239;32;20339;-58
2022/01/25 11:47:54;;;;;;;7.07;6.30;;;;;;;5.57;72.93;96729.16;4381859;32;20331;-58
2022/01/25 11:50:26;;;;;;;7.13;6.33;;;;;;;5.77;72.33;96724.37;4360982;32;20293;-55
2022/01/25 11:52:56;;;;;;;6.70;6.10;;;;;;;5.84;72.05;96730.31;4374289;32;20399;-58
2022/01/25 11:55:23;;;;;;;5.97;5.50;;;;;;;5.74;72.27;96724.84;4384087;32;20307;-58
2022/01/25 11:58:00;;;;;;;7.87;5.47;;;;;;;5.71;72.33;96723.47;4382455;32;20351;-58
2022/01/25 12:01:05;;;;;;;5.60;5.10;;;;;;;5.96;71.71;96714.56;4375589;32;20317;-58
2022/01/25 12:03:35;;;;;;;5.10;4.70;;;;;;;5.88;71.25;96715.69;4287517;33;20321;-59
2022/01/25 12:06:02;;;;;;;6.40;5.03;;;;;;;6.25;70.04;96708.34;4290278;33;20295;-60
2022/01/25 12:11:38;;;;;;;5.77;5.27;;;;;;;6.31;69.42;96704.00;4380041;32;20315;-59
2022/01/25 12:14:17;;;;;;;7.63;5.77;;;;;;;6.34;70.19;96709.63;4377233;32;20277;-61
2022/01/25 12:16:57;;;;;;;6.23;5.73;;;;;;;6.49;68.95;96709.13;4361312;32;20303;-61
2022/01/25 12:19:54;;;;;;;6.33;5.77;;;;;;;6.46;69.45;96712.22;4388486;32;20368;-61
2022/01/25 12:22:25;;;;;;;7.57;6.87;;;;;;;6.59;68.17;96706.72;4383853;32;20293;-60
2022/01/25 12:25:27;;;;;;;7.97;6.10;;;;;;;6.76;67.29;96699.66;4373153;32;20370;-59
2022/01/25 12:27:59;;;;;;;9.37;6.57;;;;;;;6.54;67.49;96691.56;4385867;32;20280;-60
2022/01/25 12:30:41;;;;;;;11.67;7.83;;;;;;;6.51;68.21;96686.78;4378309;32;20286;-58
2022/01/25 12:33:22;;;;;;;9.17;7.63;;;;;;;6.52;68.53;96683.09;4390321;32;20291;-58
2022/01/25 12:35:59;;;;;;;12.77;10.47;;;;;;;6.45;68.87;96682.41;4370105;32;20332;-59
2022/01/25 12:38:37;;;;;;;10.30;8.73;;;;;;;6.60;68.96;96684.59;4365467;32;20284;-57
2022/01/25 12:41:15;;;;;;;11.40;9.90;;;;;;;6.70;68.57;96679.50;4352861;32;20277;-57
2022/01/25 12:44:14;;;;;;;10.93;9.57;;;;;;;6.62;68.97;96687.78;4358484;32;20276;-59
2022/01/25 12:46:41;;;;;;;12.27;10.03;;;;;;;6.78;68.99;96680.97;4344283;32;20330;-62
2022/01/25 12:49:30;;;;;;;16.07;8.93;;;;;;;6.85;67.86;96682.44;4378096;32;20280;-57
2022/01/25 12:51:58;;;;;;;11.37;10.17;;;;;;;6.84;67.82;96675.56;4348982;32;20268;-60
2022/01/25 12:54:43;;;;;;;14.77;9.17;;;;;;;6.62;69.10;96679.88;4363224;32;20350;-58
2022/01/25 12:57:08;;;;;;;12.17;4.90;;;;;;;6.77;67.93;96680.16;4365967;32;20280;-48
2022/01/25 12:59:34;;;;;;;8.63;6.53;;;;;;;9.21;86.67;96665.09;4377401;32;20354;-46
2022/01/25 13:02:04;;;;;;;7.10;6.43;;;;;;;13.58;62.70;96656.44;4380516;32;20197;-48
2022/01/25 13:04:32;;;;;;;12.67;5.73;;;;;;;15.17;53.21;96656.34;4374703;32;20203;-50
2022/01/25 13:07:00;;;;;;;9.17;6.33;;;;;;;16.18;50.31;96660.06;4358272;32;20330;-52
2022/01/25 13:09:37;;;;;;;9.57;6.43;;;;;;;16.94;45.70;96657.81;4370387;32;20211;-49
2022/01/25 13:15:02;;;;;;;7.43;6.83;;;;;;;17.57;41.61;96643.50;4352145;32;20269;-59
2022/01/25 13:17:30;;;;;;;7.90;7.30;;;;;;;15.46;39.71;96659.62;4387103;32;20372;-58
2022/01/25 13:20:01;;;;;;;7.57;6.97;;;;;;;12.97;44.63;96656.03;4357358;32;20219;-57
2022/01/25 13:22:46;;;;;;;11.80;7.23;;;;;;;10.75;50.50;96661.34;4385196;32;20183;-57
2022/01/25 13:26:24;;;;;;;7.97;7.27;;;;;;;9.81;53.56;96658.69;4367162;32;20196;-57
2022/01/25 13:31:13;;;;;;;8.47;6.33;;;;;;;8.51;57.39;96647.47;4382551;32;20181;-58
2022/01/25 13:33:40;;;;;;;9.43;6.97;;;;;;;8.21;58.62;96642.56;4369432;32;20203;-58
2022/01/25 13:36:09;;;;;;;7.10;6.23;;;;;;;8.02;59.54;96647.34;4385452;32;20185;-57
2022/01/25 13:38:41;;;;;;;7.87;5.87;;;;;;;7.62;60.74;96644.91;4369997;32;20189;-57
2022/01/25 13:41:21;;;;;;;7.60;6.93;;;;;;;7.72;61.64;96641.59;4370818;32;20268;-57
2022/01/25 13:46:54;;;;;;;20.50;13.83;;;;;;;7.46;65.14;96649.16;4382605;32;20322;-59
2022/01/25 13:49:21;;;;;;;25.37;14.47;;;;;;;6.92;69.28;96655.09;4395546;32;20313;-56
2022/01/25 13:51:53;;;;;;;17.63;13.60;;;;;;;6.38;72.19;96654.63;4357612;32;20367;-57
2022/01/25 13:54:25;;;;;;;17.10;13.77;;;;;;;6.34;72.64;96650.84;4376101;32;20350;-56
2022/01/25 13:56:53;;;;;;;18.17;14.37;;;;;;;6.25;73.51;96650.38;4360532;32;20280;-56
2022/01/25 13:59:24;;;;;;;19.17;14.07;;;;;;;6.03;74.53;96646.75;4364287;32;20292;-56
2022/01/25 14:02:03;;;;;;;17.77;13.97;;;;;;;6.13;73.98;96653.06;4383510;32;20277;-56
2022/01/25 14:04:46;;;;;;;15.23;13.47;;;;;;;6.14;74.41;96659.94;4387504;32;20291;-58
2022/01/25 14:07:12;;;;;;;18.43;13.73;;;;;;;6.13;73.84;96658.31;4381430;32;20391;-58
2022/01/25 14:09:47;;;;;;;16.07;14.30;;;;;;;6.14;74.02;96662.56;4373599;32;20324;-57